createdAt,value
2022-10-14T00:01:26.934Z,4.32
2022-10-14T00:03:57.374Z,4.80
2022-10-14T00:06:27.798Z,4.78
2022-10-14T00:11:27.499Z,4.90
2022-10-14T00:16:26.810Z,4.25
2022-10-14T00:18:58.760Z,4.60
2022-10-14T00:21:27.861Z,4.30
2022-10-14T00:23:57.197Z,4.32
2022-10-14T00:26:28.250Z,4.10
2022-10-14T00:28:57.651Z,4.32
2022-10-14T00:31:28.559Z,4.03
2022-10-14T00:33:59.214Z,3.70
2022-10-14T00:36:28.287Z,4.38
2022-10-14T00:38:57.405Z,3.78
2022-10-14T00:41:28.088Z,3.65
2022-10-14T00:44:00.048Z,3.63
2022-10-14T00:46:30.889Z,3.33
2022-10-14T00:49:09.179Z,3.50
2022-10-14T00:51:39.691Z,3.70
2022-10-14T00:54:10.808Z,4.57
2022-10-14T00:56:39.227Z,4.28
2022-10-14T00:59:13.051Z,4.28
2022-10-14T01:01:41.637Z,4.30
2022-10-14T01:04:11.774Z,4.18
2022-10-14T01:06:45.686Z,4.22
2022-10-14T01:09:22.148Z,4.00
2022-10-14T01:12:27.018Z,3.88
2022-10-14T01:15:00.302Z,4.47
2022-10-14T01:17:37.881Z,3.92
2022-10-14T01:20:31.319Z,3.78
2022-10-14T01:23:13.982Z,3.50
2022-10-14T01:25:56.596Z,3.45
2022-10-14T01:28:33.983Z,3.10
2022-10-14T01:31:07.313Z,2.78
2022-10-14T01:33:39.189Z,3.03
2022-10-14T01:36:13.135Z,2.88
2022-10-14T01:38:45.965Z,2.83
2022-10-14T01:41:21.109Z,2.63
2022-10-14T01:43:52.942Z,3.55
2022-10-14T01:46:25.928Z,2.90
2022-10-14T01:48:59.607Z,3.00
2022-10-14T01:51:32.051Z,2.65
2022-10-14T01:54:09.513Z,2.92
2022-10-14T01:56:40.834Z,3.38
2022-10-14T01:59:12.905Z,3.55
2022-10-14T02:01:43.170Z,3.10
2022-10-14T02:04:17.055Z,2.92
2022-10-14T02:06:49.978Z,2.92
2022-10-14T02:09:24.777Z,2.90
2022-10-14T02:12:04.306Z,2.72
2022-10-14T02:14:40.896Z,2.95
2022-10-14T02:17:18.479Z,2.95
2022-10-14T02:19:53.732Z,2.80
2022-10-14T02:22:29.257Z,2.90
2022-10-14T02:25:20.962Z,3.22
2022-10-14T02:27:51.902Z,3.17
2022-10-14T02:30:20.724Z,3.10
2022-10-14T02:33:01.443Z,3.10
2022-10-14T02:35:32.393Z,3.40
2022-10-14T02:38:07.717Z,3.30
2022-10-14T02:40:40.212Z,2.92
2022-10-14T02:43:10.500Z,2.92
2022-10-14T02:45:40.223Z,3.10
2022-10-14T02:48:11.007Z,3.17
2022-10-14T02:50:39.884Z,3.50
2022-10-14T02:53:16.554Z,3.45
2022-10-14T02:55:47.107Z,3.97
2022-10-14T02:58:16.446Z,3.42
2022-10-14T03:00:44.872Z,3.72
2022-10-14T03:03:16.423Z,4.00
2022-10-14T03:08:17.942Z,3.50
2022-10-14T03:10:48.332Z,3.60
2022-10-14T03:13:17.849Z,3.40
2022-10-14T03:15:50.035Z,3.47
2022-10-14T03:18:22.747Z,3.60
2022-10-14T03:20:54.450Z,3.70
2022-10-14T03:23:29.358Z,3.55
2022-10-14T03:25:57.965Z,3.95
2022-10-14T03:28:35.893Z,4.32
2022-10-14T03:31:15.306Z,4.03
2022-10-14T03:34:05.356Z,4.00
2022-10-14T03:36:35.579Z,3.80
2022-10-14T03:39:05.213Z,4.32
2022-10-14T03:41:40.406Z,4.13
2022-10-14T03:46:40.595Z,4.50
2022-10-14T03:49:10.446Z,4.57
2022-10-14T03:51:39.252Z,4.40
2022-10-14T03:54:16.285Z,4.70
2022-10-14T03:56:46.100Z,4.90
2022-10-14T03:59:17.614Z,4.53
2022-10-14T04:01:50.355Z,4.82
2022-10-14T04:04:25.327Z,4.80
2022-10-14T04:06:54.078Z,5.32
2022-10-14T04:09:23.880Z,4.88
2022-10-14T04:11:52.797Z,4.95
2022-10-14T04:14:47.086Z,5.45
2022-10-14T04:17:15.708Z,5.00
2022-10-14T04:19:46.960Z,5.35
2022-10-14T04:22:18.954Z,5.07
2022-10-14T04:24:52.681Z,4.45
2022-10-14T04:27:22.391Z,4.32
2022-10-14T04:30:00.438Z,5.10
2022-10-14T04:32:38.566Z,5.18
2022-10-14T04:35:10.468Z,4.90
2022-10-14T04:37:44.547Z,5.38
2022-10-14T04:40:25.560Z,5.10
2022-10-14T04:43:05.643Z,5.30
2022-10-14T04:45:39.450Z,4.75
2022-10-14T04:48:13.609Z,4.80
2022-10-14T04:50:46.141Z,4.80
2022-10-14T04:53:44.344Z,4.90
2022-10-14T04:56:40.004Z,5.22
2022-10-14T04:59:08.491Z,5.13
2022-10-14T05:01:53.187Z,5.03
2022-10-14T05:04:23.820Z,5.03
2022-10-14T05:06:55.177Z,4.90
2022-10-14T05:09:25.537Z,4.38
2022-10-14T05:11:54.855Z,4.73
2022-10-14T05:14:31.739Z,4.97
2022-10-14T05:17:12.526Z,5.05
2022-10-14T05:19:40.861Z,4.95
2022-10-14T05:22:10.904Z,4.80
2022-10-14T05:24:44.326Z,4.57
2022-10-14T05:27:13.456Z,4.45
2022-10-14T05:29:42.524Z,4.90
2022-10-14T05:32:11.755Z,5.03
2022-10-14T05:34:45.204Z,4.18
2022-10-14T05:37:22.221Z,4.43
2022-10-14T05:39:55.445Z,5.07
2022-10-14T05:42:27.230Z,4.75
2022-10-14T05:44:58.927Z,5.00
2022-10-14T05:47:32.315Z,5.50
2022-10-14T05:50:08.095Z,5.13
2022-10-14T05:52:39.904Z,5.38
2022-10-14T05:55:16.164Z,5.15
2022-10-14T05:57:46.700Z,5.32
2022-10-14T06:00:23.325Z,5.22
2022-10-14T06:03:01.330Z,5.03
2022-10-14T06:05:30.069Z,4.97
2022-10-14T06:08:00.102Z,5.50
2022-10-14T06:12:57.766Z,7.50
2022-10-14T06:15:28.512Z,7.68
2022-10-14T06:17:58.307Z,6.65
2022-10-14T06:20:28.181Z,6.30
2022-10-14T06:22:56.535Z,6.55
2022-10-14T06:25:26.632Z,5.57
2022-10-14T06:27:55.043Z,5.55
2022-10-14T06:30:24.095Z,5.30
2022-10-14T06:32:54.167Z,4.80
2022-10-14T06:35:22.462Z,4.93
2022-10-14T06:37:51.166Z,4.93
2022-10-14T06:40:20.125Z,4.88
2022-10-14T06:42:49.673Z,4.63
2022-10-14T06:45:19.066Z,4.18
2022-10-14T06:47:47.724Z,4.38
2022-10-14T06:50:16.168Z,3.97
2022-10-14T06:52:46.378Z,4.05
2022-10-14T06:55:15.268Z,4.10
2022-10-14T06:57:44.131Z,10.88
2022-10-14T07:00:14.771Z,10.40
2022-10-14T07:02:44.499Z,5.43
2022-10-14T07:05:12.831Z,3.92
2022-10-14T07:07:41.412Z,4.28
2022-10-14T07:10:10.750Z,3.95
2022-10-14T07:12:39.465Z,4.87
2022-10-14T07:15:09.255Z,4.50
2022-10-14T07:17:39.588Z,3.83
2022-10-14T07:20:08.920Z,3.75
2022-10-14T07:22:38.901Z,3.80
2022-10-14T07:25:09.121Z,3.28
2022-10-14T07:27:37.619Z,3.80
2022-10-14T07:30:06.930Z,4.05
2022-10-14T07:32:38.445Z,4.10
2022-10-14T07:35:07.600Z,3.83
2022-10-14T07:37:36.030Z,3.03
2022-10-14T07:40:05.298Z,3.15
2022-10-14T07:42:33.722Z,3.05
2022-10-14T07:45:02.882Z,3.40
2022-10-14T07:47:33.175Z,3.10
2022-10-14T07:50:04.229Z,2.65
2022-10-14T07:52:32.692Z,2.92
2022-10-14T07:55:01.110Z,2.88
2022-10-14T07:57:31.102Z,2.88
2022-10-14T07:59:59.838Z,2.85
2022-10-14T08:02:29.139Z,4.47
2022-10-14T08:05:19.129Z,4.60
2022-10-14T08:07:48.544Z,3.55
2022-10-14T08:10:17.674Z,3.33
2022-10-14T08:12:46.343Z,2.85
2022-10-14T08:15:14.758Z,2.72
2022-10-14T08:17:43.545Z,5.30
2022-10-14T08:20:12.534Z,3.53
2022-10-14T08:22:41.670Z,3.38
2022-10-14T08:25:11.929Z,3.30
2022-10-14T08:27:40.646Z,3.10
2022-10-14T08:30:11.629Z,3.03
2022-10-14T08:32:40.258Z,3.17
2022-10-14T08:35:09.773Z,3.28
2022-10-14T08:37:38.567Z,2.90
2022-10-14T08:40:08.645Z,3.13
2022-10-14T08:42:44.350Z,3.08
2022-10-14T08:45:18.710Z,3.05
2022-10-14T08:47:48.760Z,3.30
2022-10-14T08:50:29.101Z,3.10
2022-10-14T08:53:03.683Z,5.85
2022-10-14T08:55:37.141Z,3.55
2022-10-14T08:58:14.034Z,3.80
2022-10-14T09:00:44.169Z,3.53
2022-10-14T09:03:18.157Z,3.40
2022-10-14T09:05:48.378Z,3.88
2022-10-14T09:11:13.987Z,3.60
2022-10-14T09:13:49.733Z,4.30
2022-10-14T09:16:22.300Z,3.10
2022-10-14T09:18:54.930Z,3.85
2022-10-14T09:21:47.889Z,4.03
2022-10-14T09:24:21.636Z,3.80
2022-10-14T09:26:53.370Z,3.70
2022-10-14T09:29:27.575Z,4.00
2022-10-14T09:31:58.970Z,3.58
2022-10-14T09:34:34.222Z,3.60
2022-10-14T09:37:19.297Z,3.25
2022-10-14T09:39:49.661Z,3.50
2022-10-14T09:42:22.237Z,3.50
2022-10-14T09:45:08.427Z,7.18
2022-10-14T09:47:46.401Z,3.80
2022-10-14T09:50:23.798Z,3.67
2022-10-14T09:52:59.899Z,3.40
2022-10-14T09:55:28.872Z,3.88
2022-10-14T09:58:07.389Z,4.20
2022-10-14T10:00:38.813Z,4.10
2022-10-14T10:03:11.555Z,4.28
2022-10-14T10:05:43.231Z,4.43
2022-10-14T10:08:19.459Z,4.57
2022-10-14T10:11:03.730Z,4.10
2022-10-14T10:13:44.169Z,4.15
2022-10-14T10:16:25.971Z,4.00
2022-10-14T10:18:57.271Z,4.10
2022-10-14T10:21:27.714Z,8.10
2022-10-14T10:23:58.958Z,3.72
2022-10-14T10:26:30.605Z,4.70
2022-10-14T10:29:00.816Z,3.90
2022-10-14T10:31:44.832Z,4.10
2022-10-14T10:34:49.829Z,3.70
2022-10-14T10:37:28.081Z,3.80
2022-10-14T10:40:20.406Z,3.80
2022-10-14T10:43:00.259Z,3.97
2022-10-14T10:45:42.764Z,3.70
2022-10-14T10:48:21.077Z,3.75
2022-10-14T10:50:57.749Z,3.53
2022-10-14T10:53:38.019Z,3.30
2022-10-14T10:56:14.957Z,6.10
2022-10-14T10:58:52.193Z,10.38
2022-10-14T11:01:37.233Z,7.40
2022-10-14T11:04:22.166Z,4.50
2022-10-14T11:07:17.612Z,4.50
2022-10-14T11:10:15.872Z,4.15
2022-10-14T11:12:54.885Z,4.80
2022-10-14T11:15:42.820Z,4.68
2022-10-14T11:18:20.905Z,4.10
2022-10-14T11:21:07.070Z,5.22
2022-10-14T11:23:45.436Z,4.03
2022-10-14T11:26:27.293Z,4.00
2022-10-14T11:29:05.652Z,4.30
2022-10-14T11:31:41.410Z,4.50
2022-10-14T11:34:28.700Z,3.95
2022-10-14T11:37:10.324Z,3.97
2022-10-14T11:39:43.637Z,4.50
2022-10-14T11:42:32.993Z,4.00
2022-10-14T11:45:29.889Z,4.40
2022-10-14T11:48:09.238Z,4.30
2022-10-14T11:50:43.258Z,4.45
2022-10-14T11:53:18.830Z,4.80
2022-10-14T11:55:54.914Z,4.50
2022-10-14T11:58:26.678Z,4.10
2022-10-14T12:03:35.440Z,4.00
2022-10-14T12:06:12.638Z,4.00
2022-10-14T12:08:48.744Z,3.75
2022-10-14T12:11:28.339Z,3.95
2022-10-14T12:14:04.433Z,3.42
2022-10-14T12:16:33.861Z,3.70
2022-10-14T12:19:02.911Z,5.88
2022-10-14T12:21:37.690Z,5.03
2022-10-14T12:24:14.447Z,4.60
2022-10-14T12:26:55.062Z,4.10
2022-10-14T12:29:28.213Z,3.78
2022-10-14T12:32:23.079Z,3.80
2022-10-14T12:34:55.805Z,3.70
2022-10-14T12:37:53.034Z,3.60
2022-10-14T12:40:32.545Z,3.65
2022-10-14T12:43:13.504Z,4.40
2022-10-14T12:46:02.361Z,4.75
2022-10-14T12:48:33.855Z,3.47
2022-10-14T12:51:12.364Z,3.65
2022-10-14T12:53:51.165Z,3.80
2022-10-14T12:56:37.569Z,6.32
2022-10-14T12:59:09.815Z,4.43
2022-10-14T13:01:39.367Z,4.10
2022-10-14T13:04:19.994Z,3.70
2022-10-14T13:07:45.565Z,3.90
2022-10-14T13:10:52.699Z,3.70
2022-10-14T13:13:52.703Z,3.80
2022-10-14T13:16:57.119Z,3.92
2022-10-14T13:19:46.002Z,3.40
2022-10-14T13:22:40.052Z,3.65
2022-10-14T13:25:16.283Z,3.80
2022-10-14T13:27:59.266Z,3.75
2022-10-14T13:30:37.294Z,5.80
2022-10-14T13:33:15.270Z,3.78
2022-10-14T13:35:52.935Z,3.58
2022-10-14T13:38:23.662Z,3.50
2022-10-14T13:40:55.226Z,3.40
2022-10-14T13:43:28.728Z,6.78
2022-10-14T13:46:06.940Z,4.57
2022-10-14T13:48:39.885Z,4.25
2022-10-14T13:51:36.106Z,4.00
2022-10-14T13:54:19.015Z,3.85
2022-10-14T14:02:49.039Z,3.22
2022-10-14T14:05:27.385Z,5.35
2022-10-14T14:11:15.153Z,2.90
2022-10-14T14:13:54.697Z,3.20
2022-10-14T14:16:32.094Z,4.20
2022-10-14T14:19:10.507Z,3.30
2022-10-14T14:21:39.254Z,3.40
2022-10-14T14:24:18.813Z,2.70
2022-10-14T14:26:55.480Z,2.40
2022-10-14T14:29:28.857Z,2.40
2022-10-14T14:32:07.898Z,2.55
2022-10-14T14:40:08.296Z,3.00
2022-10-14T14:42:39.551Z,2.63
2022-10-14T14:45:14.331Z,2.63
2022-10-14T14:47:43.521Z,2.38
2022-10-14T14:50:32.229Z,2.83
2022-10-14T14:53:04.679Z,3.38
2022-10-14T14:55:39.372Z,2.60
2022-10-14T14:58:23.771Z,2.53
2022-10-14T15:00:55.201Z,2.63
2022-10-14T15:03:25.436Z,2.75
2022-10-14T15:05:58.830Z,2.72
2022-10-14T15:08:29.774Z,3.33
2022-10-14T15:11:00.113Z,3.20
2022-10-14T15:13:32.377Z,3.15
2022-10-14T15:16:00.981Z,3.20
2022-10-14T15:18:30.419Z,3.97
2022-10-14T15:21:15.061Z,3.23
2022-10-14T15:23:46.988Z,2.70
2022-10-14T15:26:29.718Z,3.20
2022-10-14T15:29:16.054Z,3.42
2022-10-14T15:31:46.777Z,4.53
2022-10-14T15:36:54.168Z,4.20
2022-10-14T15:39:23.244Z,4.32
2022-10-14T15:41:51.861Z,4.10
2022-10-14T15:44:20.626Z,4.32
2022-10-14T15:47:06.431Z,4.95
2022-10-14T15:49:40.523Z,4.05
2022-10-14T15:52:14.816Z,5.13
2022-10-14T15:54:44.358Z,4.70
2022-10-14T15:57:16.479Z,4.97
2022-10-14T15:59:49.597Z,5.70
2022-10-14T16:02:23.006Z,5.22
2022-10-14T16:05:19.351Z,4.65
2022-10-14T16:07:43.891Z,5.05
2022-10-14T16:10:15.108Z,4.85
2022-10-14T16:12:44.099Z,4.78
2022-10-14T16:15:31.916Z,4.93
2022-10-14T16:18:00.982Z,4.85
2022-10-14T16:20:30.818Z,4.85
2022-10-14T16:23:04.284Z,6.07
2022-10-14T16:25:38.840Z,5.53
2022-10-14T16:28:10.207Z,4.75
2022-10-14T16:30:41.724Z,4.38
2022-10-14T16:35:49.769Z,4.35
2022-10-14T16:38:20.297Z,3.75
2022-10-14T16:40:56.139Z,3.67
2022-10-14T16:43:25.664Z,4.22
2022-10-14T16:45:54.274Z,5.30
2022-10-14T16:48:22.736Z,6.22
2022-10-14T16:50:53.704Z,4.50
2022-10-14T16:53:44.931Z,4.95
2022-10-14T16:56:33.462Z,5.27
2022-10-14T16:59:03.077Z,4.97
2022-10-14T17:01:31.898Z,4.03
2022-10-14T17:04:00.238Z,4.60
2022-10-14T17:06:29.474Z,4.50
2022-10-14T17:08:59.740Z,5.15
2022-10-14T17:11:30.745Z,6.45
2022-10-14T17:14:01.375Z,6.32
2022-10-14T17:16:31.453Z,5.70
2022-10-14T17:19:00.469Z,6.22
2022-10-14T17:21:29.829Z,5.22
2022-10-14T17:24:02.603Z,5.25
2022-10-14T17:26:32.736Z,4.80
2022-10-14T17:29:01.131Z,5.55
2022-10-14T17:31:30.304Z,5.80
2022-10-14T17:34:00.218Z,5.88
2022-10-14T17:36:30.897Z,5.30
2022-10-14T17:39:01.274Z,6.10
2022-10-14T17:41:30.696Z,5.57
2022-10-14T17:44:01.390Z,5.20
2022-10-14T17:49:03.989Z,5.10
2022-10-14T17:51:32.997Z,4.65
2022-10-14T17:54:05.423Z,4.72
2022-10-14T17:56:35.510Z,5.00
2022-10-14T17:59:07.198Z,4.20
2022-10-14T18:01:37.929Z,6.22
2022-10-14T18:04:12.778Z,5.43
2022-10-14T18:06:44.638Z,5.70
2022-10-14T18:09:15.555Z,4.90
2022-10-14T18:14:34.471Z,4.90
2022-10-14T18:17:03.032Z,4.68
2022-10-14T18:19:31.850Z,4.47
2022-10-14T18:22:00.346Z,4.63
2022-10-14T18:24:30.577Z,4.53
2022-10-14T18:26:59.363Z,4.35
2022-10-14T18:29:27.870Z,4.95
2022-10-14T18:32:00.189Z,4.10
2022-10-14T18:34:50.030Z,5.45
2022-10-14T18:37:19.777Z,5.68
2022-10-14T18:39:49.851Z,6.68
2022-10-14T18:42:20.789Z,6.32
2022-10-14T18:44:50.039Z,5.85
2022-10-14T18:47:19.540Z,5.03
2022-10-14T18:49:49.646Z,4.60
2022-10-14T18:54:51.418Z,4.13
2022-10-14T18:57:21.360Z,4.13
2022-10-14T18:59:51.229Z,3.53
2022-10-14T19:04:49.035Z,3.53
2022-10-14T19:07:17.341Z,3.63
2022-10-14T19:09:46.035Z,3.10
2022-10-14T19:12:33.037Z,4.80
2022-10-14T19:15:01.732Z,3.55
2022-10-14T19:17:36.435Z,3.63
2022-10-14T19:20:08.691Z,3.28
2022-10-14T19:22:44.650Z,3.55
2022-10-14T19:25:16.791Z,3.80
2022-10-14T19:27:46.415Z,3.47
2022-10-14T19:30:15.733Z,3.53
2022-10-14T19:32:43.944Z,3.80
2022-10-14T19:35:12.496Z,4.00
2022-10-14T19:37:41.093Z,4.15
2022-10-14T19:40:10.112Z,3.28
2022-10-14T19:42:38.900Z,3.25
2022-10-14T19:45:09.201Z,3.08
2022-10-14T19:47:38.121Z,3.33
2022-10-14T19:50:07.690Z,3.70
2022-10-14T19:52:36.423Z,4.03
2022-10-14T19:55:05.600Z,4.00
2022-10-14T19:57:34.094Z,3.85
2022-10-14T20:00:02.375Z,3.50
2022-10-14T20:02:34.472Z,3.10
2022-10-14T20:05:03.021Z,3.47
2022-10-14T20:07:31.281Z,2.97
2022-10-14T20:10:02.699Z,3.40
2022-10-14T20:12:32.009Z,2.75
2022-10-14T20:15:00.722Z,2.80
2022-10-14T20:17:29.359Z,3.42
2022-10-14T20:19:59.127Z,3.35
2022-10-14T20:22:27.644Z,3.92
2022-10-14T20:24:56.312Z,4.05
2022-10-14T20:27:25.206Z,4.28
2022-10-14T20:29:54.143Z,4.57
2022-10-14T20:32:22.396Z,5.43
2022-10-14T20:34:50.853Z,4.47
2022-10-14T20:37:24.248Z,4.80
2022-10-14T20:39:56.010Z,4.43
2022-10-14T20:42:24.685Z,3.55
2022-10-14T20:44:52.945Z,3.72
2022-10-14T20:47:21.429Z,3.47
2022-10-14T20:49:49.980Z,3.72
2022-10-14T20:52:18.254Z,3.63
2022-10-14T20:54:48.361Z,4.22
2022-10-14T20:57:16.838Z,4.40
2022-10-14T20:59:45.123Z,4.13
2022-10-14T21:02:16.981Z,4.15
2022-10-14T21:04:48.673Z,4.40
2022-10-14T21:07:17.982Z,4.10
2022-10-14T21:09:48.329Z,3.80
2022-10-14T21:12:17.448Z,3.80
2022-10-14T21:14:45.811Z,3.63
2022-10-14T21:17:15.068Z,3.00
2022-10-14T21:19:43.890Z,3.30
2022-10-14T21:22:15.102Z,2.72
2022-10-14T21:24:43.556Z,3.58
2022-10-14T21:27:13.632Z,3.03
2022-10-14T21:29:41.891Z,2.88
2022-10-14T21:32:10.454Z,2.63
2022-10-14T21:34:39.001Z,2.55
2022-10-14T21:37:07.307Z,2.60
2022-10-14T21:39:36.262Z,2.70
2022-10-14T21:42:04.851Z,2.45
2022-10-14T21:44:34.786Z,2.53
2022-10-14T21:47:03.355Z,2.58
2022-10-14T21:49:32.049Z,2.33
2022-10-14T21:52:00.303Z,2.80
2022-10-14T21:54:29.423Z,2.47
2022-10-14T21:56:57.703Z,2.53
2022-10-14T21:59:26.940Z,2.60
2022-10-14T22:01:58.794Z,2.95
2022-10-14T22:04:28.164Z,3.00
2022-10-14T22:06:56.383Z,2.90
2022-10-14T22:09:25.242Z,2.72
2022-10-14T22:11:54.379Z,2.85
2022-10-14T22:14:23.068Z,2.60
2022-10-14T22:16:51.369Z,2.70
2022-10-14T22:19:21.311Z,2.53
2022-10-14T22:21:55.125Z,2.90
2022-10-14T22:24:24.003Z,3.17
2022-10-14T22:26:52.664Z,2.95
2022-10-14T22:29:21.655Z,2.80
2022-10-14T22:31:50.140Z,3.10
2022-10-14T22:34:20.013Z,3.28
2022-10-14T22:36:49.136Z,2.97
2022-10-14T22:39:18.483Z,2.70
2022-10-14T22:41:47.109Z,2.90
2022-10-14T22:44:15.480Z,2.70
2022-10-14T22:46:43.914Z,3.13
2022-10-14T22:49:12.266Z,3.00
2022-10-14T22:51:42.638Z,3.00
2022-10-14T22:54:11.131Z,3.28
2022-10-14T22:56:40.722Z,3.22
2022-10-14T22:59:10.744Z,3.10
2022-10-14T23:01:39.942Z,3.05
2022-10-14T23:04:10.966Z,2.90
2022-10-14T23:06:43.908Z,2.83
2022-10-14T23:09:12.394Z,2.70
2022-10-14T23:11:40.682Z,2.65
2022-10-14T23:14:09.366Z,2.42
2022-10-14T23:16:39.802Z,2.38
2022-10-14T23:19:08.803Z,2.10
2022-10-14T23:21:38.964Z,2.40
2022-10-14T23:24:12.124Z,3.20
2022-10-14T23:26:40.416Z,1.95
2022-10-14T23:29:12.664Z,1.85
2022-10-14T23:31:41.905Z,2.17
2022-10-14T23:34:14.469Z,2.22
2022-10-14T23:36:43.349Z,2.08
2022-10-14T23:39:13.450Z,2.38
2022-10-14T23:41:42.429Z,2.00
2022-10-14T23:44:12.537Z,1.90
2022-10-14T23:46:41.054Z,2.15
2022-10-14T23:49:25.129Z,2.00
2022-10-14T23:51:54.889Z,2.20
2022-10-14T23:54:24.719Z,2.10
2022-10-14T23:56:53.842Z,1.70
2022-10-14T23:59:22.224Z,1.90
